LROP/OTP METAR and TAF weather

Enter ICAO airport designator
Station Type Date Time Source
LROP METAR 2021/09/24 03:30 UTC NOAA

LROP 240330Z 23005KT CAVOK 07/06 Q1015 NOSIG


Station Type Date Time Source
LROP Decoded METAR 2021/09/24 03:30 UTC NOAA

Bucuresti Otopeni, Romania (LROP) 44-33N 026-06E 95M
Sep 23, 2021 - 11:30 PM EDT / 2021.09.24 0330 UTC
Wind: from the SW (230 degrees) at 6 MPH (5 KT):0
Visibility: greater than 7 mile(s):0
Temperature: 44 F (7 C)
Dew Point: 42 F (6 C)
Relative Humidity: 93%
Pressure (altimeter): 29.97 in. Hg (1015 hPa)
ob: LROP 240330Z 23005KT CAVOK 07/06 Q1015 NOSIG
cycle: 3

Station Type Date Time Source
LROP TAF 2021/09/23 18:33 UTC NOAA

TAF LROP 231700Z 2318/2418 VRB04KT CAVOK
BECMG 2404/2406 24012KT PROB30
TEMPO 2408/2412 26015G25KT
BECMG 2416/2418 VRB04KT

Example: see airport list